sensor_id;sensor_type;location;lat;lon;timestamp;pressure;altitude;pressure_sealevel;temperature;humidity
56713;BME280;42589;45.536;9.032;2023-03-14T00:02:40;98781.72;;;17.22;52.63
56713;BME280;42589;45.536;9.032;2023-03-14T00:05:41;98774.69;;;17.21;52.47
56713;BME280;42589;45.536;9.032;2023-03-14T00:08:43;98772.31;;;17.74;51.97
56713;BME280;42589;45.536;9.032;2023-03-14T00:11:44;98765.72;;;17.08;53.00
56713;BME280;42589;45.536;9.032;2023-03-14T00:14:46;98741.25;;;17.60;52.10
56713;BME280;42589;45.536;9.032;2023-03-14T00:17:47;98757.13;;;17.43;53.12
56713;BME280;42589;45.536;9.032;2023-03-14T00:20:48;98746.44;;;17.98;51.29
56713;BME280;42589;45.536;9.032;2023-03-14T00:23:49;98703.41;;;17.00;53.09
56713;BME280;42589;45.536;9.032;2023-03-14T00:26:51;98696.25;;;16.93;54.32
56713;BME280;42589;45.536;9.032;2023-03-14T00:29:52;98708.63;;;17.75;51.96
56713;BME280;42589;45.536;9.032;2023-03-14T00:32:52;98699.50;;;18.13;51.49
56713;BME280;42589;45.536;9.032;2023-03-14T00:36:02;98677.81;;;17.40;53.11
56713;BME280;42589;45.536;9.032;2023-03-14T00:39:03;98687.72;;;17.22;52.84
56713;BME280;42589;45.536;9.032;2023-03-14T00:42:04;98658.00;;;16.73;55.18
56713;BME280;42589;45.536;9.032;2023-03-14T00:45:05;98690.72;;;17.69;52.52
56713;BME280;42589;45.536;9.032;2023-03-14T00:48:08;98680.53;;;16.97;54.73
56713;BME280;42589;45.536;9.032;2023-03-14T00:51:09;98669.66;;;16.60;54.47
56713;BME280;42589;45.536;9.032;2023-03-14T00:54:11;98664.28;;;17.47;53.87
56713;BME280;42589;45.536;9.032;2023-03-14T00:57:11;98652.59;;;17.23;53.99
56713;BME280;42589;45.536;9.032;2023-03-14T01:00:12;98665.41;;;16.53;56.05
56713;BME280;42589;45.536;9.032;2023-03-14T01:03:14;98639.00;;;16.24;55.69
56713;BME280;42589;45.536;9.032;2023-03-14T01:06:17;98641.59;;;16.88;54.86
56713;BME280;42589;45.536;9.032;2023-03-14T01:09:18;98636.94;;;15.88;55.72
56713;BME280;42589;45.536;9.032;2023-03-14T01:12:19;98601.56;;;15.80;56.24
56713;BME280;42589;45.536;9.032;2023-03-14T01:15:20;98622.63;;;16.58;55.09
56713;BME280;42589;45.536;9.032;2023-03-14T01:18:21;98615.31;;;16.46;56.32
56713;BME280;42589;45.536;9.032;2023-03-14T01:21:28;98592.81;;;16.22;55.45
56713;BME280;42589;45.536;9.032;2023-03-14T01:24:29;98567.03;;;16.21;55.74
56713;BME280;42589;45.536;9.032;2023-03-14T01:27:30;98588.16;;;17.23;53.10
56713;BME280;42589;45.536;9.032;2023-03-14T01:30:31;98580.25;;;17.77;51.41
56713;BME280;42589;45.536;9.032;2023-03-14T01:33:31;98552.75;;;16.71;53.64
56713;BME280;42589;45.536;9.032;2023-03-14T01:36:32;98546.78;;;17.43;52.34
56713;BME280;42589;45.536;9.032;2023-03-14T01:39:33;98527.66;;;17.02;52.27
56713;BME280;42589;45.536;9.032;2023-03-14T01:42:34;98543.31;;;17.05;52.44
56713;BME280;42589;45.536;9.032;2023-03-14T01:52:34;98522.56;;;17.31;51.12
56713;BME280;42589;45.536;9.032;2023-03-14T01:55:36;98510.00;;;17.13;52.57
56713;BME280;42589;45.536;9.032;2023-03-14T01:58:39;98481.31;;;15.58;54.81
56713;BME280;42589;45.536;9.032;2023-03-14T02:01:43;98452.63;;;16.59;52.65
56713;BME280;42589;45.536;9.032;2023-03-14T02:04:46;98448.34;;;16.51;53.09
56713;BME280;42589;45.536;9.032;2023-03-14T02:07:55;98435.41;;;16.85;51.24
56713;BME280;42589;45.536;9.032;2023-03-14T02:10:56;98449.22;;;16.08;53.52
56713;BME280;42589;45.536;9.032;2023-03-14T02:13:58;98450.53;;;15.99;52.80
56713;BME280;42589;45.536;9.032;2023-03-14T02:17:01;98448.06;;;16.41;53.41
56713;BME280;42589;45.536;9.032;2023-03-14T02:23:05;98430.94;;;16.79;52.37
56713;BME280;42589;45.536;9.032;2023-03-14T02:26:13;98438.81;;;16.92;50.72
56713;BME280;42589;45.536;9.032;2023-03-14T02:29:16;98424.72;;;16.60;51.98
56713;BME280;42589;45.536;9.032;2023-03-14T02:32:18;98417.50;;;16.05;52.55
56713;BME280;42589;45.536;9.032;2023-03-14T02:35:22;98409.13;;;15.95;52.67
56713;BME280;42589;45.536;9.032;2023-03-14T02:38:34;98446.41;;;17.25;50.77
56713;BME280;42589;45.536;9.032;2023-03-14T02:41:36;98480.84;;;16.98;49.87
56713;BME280;42589;45.536;9.032;2023-03-14T02:44:51;98467.72;;;16.71;51.05
56713;BME280;42589;45.536;9.032;2023-03-14T02:47:55;98479.03;;;16.55;51.41
56713;BME280;42589;45.536;9.032;2023-03-14T02:50:59;98468.34;;;16.92;51.28
56713;BME280;42589;45.536;9.032;2023-03-14T02:54:01;98461.94;;;17.23;49.92
56713;BME280;42589;45.536;9.032;2023-03-14T02:57:03;98455.28;;;16.96;51.60
56713;BME280;42589;45.536;9.032;2023-03-14T03:00:06;98459.69;;;16.71;51.93
56713;BME280;42589;45.536;9.032;2023-03-14T03:03:07;98454.88;;;17.10;51.89
56713;BME280;42589;45.536;9.032;2023-03-14T03:06:08;98465.34;;;16.63;52.79
56713;BME280;42589;45.536;9.032;2023-03-14T03:09:08;98444.91;;;16.81;52.39
56713;BME280;42589;45.536;9.032;2023-03-14T03:12:10;98477.34;;;17.28;49.77
56713;BME280;42589;45.536;9.032;2023-03-14T03:15:10;98490.25;;;17.07;50.69
56713;BME280;42589;45.536;9.032;2023-03-14T03:18:11;98501.50;;;15.67;54.03
56713;BME280;42589;45.536;9.032;2023-03-14T03:21:12;98493.56;;;14.24;59.24
56713;BME280;42589;45.536;9.032;2023-03-14T03:24:13;98484.47;;;14.52;59.94
56713;BME280;42589;45.536;9.032;2023-03-14T03:27:15;98492.84;;;16.15;54.38
56713;BME280;42589;45.536;9.032;2023-03-14T03:30:16;98482.50;;;17.29;51.45
56713;BME280;42589;45.536;9.032;2023-03-14T03:33:17;98471.75;;;16.99;52.40
56713;BME280;42589;45.536;9.032;2023-03-14T03:36:23;98452.81;;;17.54;51.13
56713;BME280;42589;45.536;9.032;2023-03-14T03:39:24;98446.69;;;17.35;51.34
56713;BME280;42589;45.536;9.032;2023-03-14T03:42:27;98434.84;;;16.58;52.04
56713;BME280;42589;45.536;9.032;2023-03-14T03:45:28;98432.50;;;17.28;52.56
56713;BME280;42589;45.536;9.032;2023-03-14T03:48:28;98427.31;;;17.57;51.07
56713;BME280;42589;45.536;9.032;2023-03-14T03:51:30;98430.34;;;18.02;49.68
56713;BME280;42589;45.536;9.032;2023-03-14T03:54:31;98438.84;;;17.34;50.32
56713;BME280;42589;45.536;9.032;2023-03-14T03:57:31;98443.25;;;17.70;50.65
56713;BME280;42589;45.536;9.032;2023-03-14T04:00:32;98471.41;;;17.68;50.23
56713;BME280;42589;45.536;9.032;2023-03-14T04:03:33;98480.84;;;16.98;52.67
56713;BME280;42589;45.536;9.032;2023-03-14T04:06:34;98466.06;;;16.70;52.57
56713;BME280;42589;45.536;9.032;2023-03-14T04:09:37;98439.50;;;16.87;53.36
56713;BME280;42589;45.536;9.032;2023-03-14T04:12:37;98468.31;;;16.74;52.70
56713;BME280;42589;45.536;9.032;2023-03-14T04:15:38;98470.13;;;16.98;53.33
56713;BME280;42589;45.536;9.032;2023-03-14T04:18:39;98468.22;;;17.17;51.54
56713;BME280;42589;45.536;9.032;2023-03-14T04:21:40;98489.47;;;17.49;51.07
56713;BME280;42589;45.536;9.032;2023-03-14T04:24:44;98493.38;;;17.64;51.28
56713;BME280;42589;45.536;9.032;2023-03-14T04:27:46;98483.69;;;17.75;50.93
56713;BME280;42589;45.536;9.032;2023-03-14T04:30:48;98462.19;;;17.33;50.81
56713;BME280;42589;45.536;9.032;2023-03-14T04:33:49;98440.56;;;17.16;50.93
56713;BME280;42589;45.536;9.032;2023-03-14T04:36:50;98422.72;;;17.34;51.12
56713;BME280;42589;45.536;9.032;2023-03-14T04:39:50;98428.19;;;17.27;52.09
56713;BME280;42589;45.536;9.032;2023-03-14T04:42:52;98407.88;;;17.73;51.40
56713;BME280;42589;45.536;9.032;2023-03-14T04:45:53;98367.88;;;17.42;50.75
56713;BME280;42589;45.536;9.032;2023-03-14T04:48:54;98310.66;;;17.64;51.77
56713;BME280;42589;45.536;9.032;2023-03-14T04:51:57;98289.22;;;16.99;52.08
56713;BME280;42589;45.536;9.032;2023-03-14T04:54:58;98297.78;;;16.47;53.54
56713;BME280;42589;45.536;9.032;2023-03-14T04:57:59;98294.66;;;16.81;53.33
56713;BME280;42589;45.536;9.032;2023-03-14T05:01:04;98329.09;;;17.37;52.00
56713;BME280;42589;45.536;9.032;2023-03-14T05:04:05;98328.28;;;17.37;50.48
56713;BME280;42589;45.536;9.032;2023-03-14T05:07:12;98354.75;;;17.22;52.78
56713;BME280;42589;45.536;9.032;2023-03-14T05:10:13;98348.44;;;17.28;51.10
56713;BME280;42589;45.536;9.032;2023-03-14T05:13:15;98310.78;;;17.70;50.19
56713;BME280;42589;45.536;9.032;2023-03-14T05:16:16;98299.88;;;17.17;50.60
56713;BME280;42589;45.536;9.032;2023-03-14T05:19:16;98294.06;;;17.44;51.74
56713;BME280;42589;45.536;9.032;2023-03-14T05:22:17;98281.22;;;17.93;49.77
56713;BME280;42589;45.536;9.032;2023-03-14T05:25:18;98293.25;;;17.67;50.61
56713;BME280;42589;45.536;9.032;2023-03-14T05:28:22;98297.34;;;17.81;50.79
56713;BME280;42589;45.536;9.032;2023-03-14T05:31:22;98301.69;;;17.82;51.33
56713;BME280;42589;45.536;9.032;2023-03-14T05:34:23;98331.88;;;17.19;51.54
56713;BME280;42589;45.536;9.032;2023-03-14T05:37:27;98336.25;;;18.02;48.36
56713;BME280;42589;45.536;9.032;2023-03-14T05:40:28;98341.16;;;17.94;50.02
56713;BME280;42589;45.536;9.032;2023-03-14T05:43:29;98343.00;;;18.17;48.41
56713;BME280;42589;45.536;9.032;2023-03-14T05:46:30;98379.78;;;17.46;50.22
56713;BME280;42589;45.536;9.032;2023-03-14T05:49:30;98402.69;;;17.06;51.88
56713;BME280;42589;45.536;9.032;2023-03-14T05:52:31;98389.63;;;17.75;50.38
56713;BME280;42589;45.536;9.032;2023-03-14T05:55:32;98399.84;;;16.53;52.82
56713;BME280;42589;45.536;9.032;2023-03-14T05:58:33;98389.25;;;16.39;53.78
56713;BME280;42589;45.536;9.032;2023-03-14T06:01:34;98385.06;;;16.80;51.50
56713;BME280;42589;45.536;9.032;2023-03-14T06:04:35;98415.38;;;17.41;51.78
56713;BME280;42589;45.536;9.032;2023-03-14T06:07:36;98360.19;;;17.45;51.36
56713;BME280;42589;45.536;9.032;2023-03-14T06:10:37;98388.97;;;18.03;49.86
56713;BME280;42589;45.536;9.032;2023-03-14T06:13:38;98376.19;;;18.10;48.61
56713;BME280;42589;45.536;9.032;2023-03-14T06:16:39;98360.50;;;18.31;48.82
56713;BME280;42589;45.536;9.032;2023-03-14T06:19:40;98363.19;;;18.43;48.60
56713;BME280;42589;45.536;9.032;2023-03-14T06:22:41;98363.66;;;18.40;48.60
56713;BME280;42589;45.536;9.032;2023-03-14T06:25:42;98367.09;;;18.64;47.29
56713;BME280;42589;45.536;9.032;2023-03-14T06:28:43;98378.41;;;18.37;48.86
56713;BME280;42589;45.536;9.032;2023-03-14T06:31:44;98355.16;;;18.60;47.88
56713;BME280;42589;45.536;9.032;2023-03-14T06:34:45;98359.00;;;18.75;48.00
56713;BME280;42589;45.536;9.032;2023-03-14T06:37:46;98369.25;;;18.90;47.14
56713;BME280;42589;45.536;9.032;2023-03-14T06:40:46;98366.28;;;18.63;46.64
56713;BME280;42589;45.536;9.032;2023-03-14T06:43:47;98372.31;;;18.82;47.66
56713;BME280;42589;45.536;9.032;2023-03-14T06:46:48;98369.78;;;18.75;47.90
56713;BME280;42589;45.536;9.032;2023-03-14T06:49:49;98374.81;;;19.00;47.54
56713;BME280;42589;45.536;9.032;2023-03-14T06:52:50;98390.28;;;18.93;47.25
56713;BME280;42589;45.536;9.032;2023-03-14T06:55:51;98386.25;;;19.08;46.83
56713;BME280;42589;45.536;9.032;2023-03-14T06:58:52;98381.97;;;18.95;47.34
56713;BME280;42589;45.536;9.032;2023-03-14T07:01:53;98383.13;;;18.99;47.66
56713;BME280;42589;45.536;9.032;2023-03-14T07:04:54;98394.22;;;19.02;46.31
56713;BME280;42589;45.536;9.032;2023-03-14T07:07:56;98402.28;;;18.74;47.61
56713;BME280;42589;45.536;9.032;2023-03-14T07:10:56;98396.59;;;18.59;47.54
56713;BME280;42589;45.536;9.032;2023-03-14T07:13:58;98394.81;;;18.64;47.43
56713;BME280;42589;45.536;9.032;2023-03-14T07:16:59;98408.78;;;18.90;47.99
56713;BME280;42589;45.536;9.032;2023-03-14T07:20:00;98399.75;;;18.96;47.28
56713;BME280;42589;45.536;9.032;2023-03-14T07:23:01;98408.22;;;19.16;46.95
56713;BME280;42589;45.536;9.032;2023-03-14T07:26:03;98381.72;;;18.96;47.43
56713;BME280;42589;45.536;9.032;2023-03-14T07:29:04;98421.06;;;18.97;47.31
56713;BME280;42589;45.536;9.032;2023-03-14T07:32:06;98412.69;;;18.18;48.35
56713;BME280;42589;45.536;9.032;2023-03-14T07:35:08;98427.97;;;18.41;48.11
56713;BME280;42589;45.536;9.032;2023-03-14T07:38:09;98418.50;;;18.39;48.37
56713;BME280;42589;45.536;9.032;2023-03-14T07:41:09;98405.25;;;18.49;47.38
56713;BME280;42589;45.536;9.032;2023-03-14T07:44:10;98408.00;;;18.37;47.36
56713;BME280;42589;45.536;9.032;2023-03-14T07:47:12;98434.97;;;18.54;47.37
56713;BME280;42589;45.536;9.032;2023-03-14T07:50:13;98429.09;;;18.69;46.91
56713;BME280;42589;45.536;9.032;2023-03-14T07:53:13;98419.97;;;18.82;47.16
56713;BME280;42589;45.536;9.032;2023-03-14T07:56:14;98431.69;;;19.33;46.85
56713;BME280;42589;45.536;9.032;2023-03-14T07:59:15;98414.91;;;19.14;46.34
56713;BME280;42589;45.536;9.032;2023-03-14T08:02:16;98439.25;;;19.19;47.11
56713;BME280;42589;45.536;9.032;2023-03-14T08:05:16;98443.28;;;19.33;45.98
56713;BME280;42589;45.536;9.032;2023-03-14T08:08:18;98460.84;;;19.53;45.65
56713;BME280;42589;45.536;9.032;2023-03-14T08:11:18;98452.00;;;19.40;46.54
56713;BME280;42589;45.536;9.032;2023-03-14T08:14:19;98436.59;;;19.53;46.07
56713;BME280;42589;45.536;9.032;2023-03-14T08:17:20;98455.84;;;19.90;45.92
56713;BME280;42589;45.536;9.032;2023-03-14T08:20:24;98456.25;;;19.65;46.39
56713;BME280;42589;45.536;9.032;2023-03-14T08:23:25;98445.69;;;19.63;46.81
56713;BME280;42589;45.536;9.032;2023-03-14T08:26:25;98440.91;;;19.99;46.59
56713;BME280;42589;45.536;9.032;2023-03-14T08:29:26;98419.25;;;20.11;44.70
56713;BME280;42589;45.536;9.032;2023-03-14T08:32:27;98436.69;;;20.25;45.36
56713;BME280;42589;45.536;9.032;2023-03-14T08:35:29;98429.13;;;20.44;46.13
56713;BME280;42589;45.536;9.032;2023-03-14T08:38:29;98434.78;;;20.43;45.24
56713;BME280;42589;45.536;9.032;2023-03-14T08:41:30;98447.31;;;20.71;44.43
56713;BME280;42589;45.536;9.032;2023-03-14T08:44:32;98448.50;;;20.80;43.09
56713;BME280;42589;45.536;9.032;2023-03-14T08:47:33;98431.00;;;20.44;43.44
56713;BME280;42589;45.536;9.032;2023-03-14T08:50:33;98440.72;;;19.27;45.26
56713;BME280;42589;45.536;9.032;2023-03-14T08:53:34;98427.81;;;20.08;44.18
56713;BME280;42589;45.536;9.032;2023-03-14T08:56:35;98443.91;;;20.03;45.51
56713;BME280;42589;45.536;9.032;2023-03-14T08:59:38;98456.34;;;20.04;43.47
56713;BME280;42589;45.536;9.032;2023-03-14T09:02:39;98431.53;;;19.56;44.73
56713;BME280;42589;45.536;9.032;2023-03-14T09:05:40;98438.50;;;19.07;45.70
56713;BME280;42589;45.536;9.032;2023-03-14T09:08:41;98412.38;;;19.07;46.51
56713;BME280;42589;45.536;9.032;2023-03-14T09:11:42;98398.72;;;18.97;45.72
56713;BME280;42589;45.536;9.032;2023-03-14T09:14:44;98431.69;;;20.73;43.46
56713;BME280;42589;45.536;9.032;2023-03-14T09:17:45;98421.13;;;18.74;45.84
56713;BME280;42589;45.536;9.032;2023-03-14T09:20:46;98419.66;;;19.69;45.03
56713;BME280;42589;45.536;9.032;2023-03-14T09:23:47;98392.72;;;19.07;45.81
56713;BME280;42589;45.536;9.032;2023-03-14T09:26:48;98408.63;;;20.26;44.38
56713;BME280;42589;45.536;9.032;2023-03-14T09:29:49;98416.09;;;19.35;46.23
56713;BME280;42589;45.536;9.032;2023-03-14T09:32:50;98416.72;;;19.70;45.23
56713;BME280;42589;45.536;9.032;2023-03-14T09:35:51;98419.50;;;18.73;47.60
56713;BME280;42589;45.536;9.032;2023-03-14T09:38:52;98412.47;;;18.08;49.19
56713;BME280;42589;45.536;9.032;2023-03-14T09:41:55;98430.56;;;20.13;46.15
56713;BME280;42589;45.536;9.032;2023-03-14T09:45:04;98412.16;;;19.71;45.13
56713;BME280;42589;45.536;9.032;2023-03-14T09:48:19;98413.72;;;20.23;45.21
56713;BME280;42589;45.536;9.032;2023-03-14T09:51:21;98412.28;;;20.15;44.57
56713;BME280;42589;45.536;9.032;2023-03-14T09:54:36;98414.31;;;20.47;44.10
56713;BME280;42589;45.536;9.032;2023-03-14T09:57:38;98420.00;;;20.28;43.26
56713;BME280;42589;45.536;9.032;2023-03-14T10:00:40;98410.56;;;20.09;44.48
56713;BME280;42589;45.536;9.032;2023-03-14T10:03:45;98430.19;;;20.43;43.47
56713;BME280;42589;45.536;9.032;2023-03-14T10:06:46;98400.38;;;21.26;42.49
56713;BME280;42589;45.536;9.032;2023-03-14T10:09:51;98415.78;;;21.85;40.85
56713;BME280;42589;45.536;9.032;2023-03-14T10:13:05;98395.25;;;20.97;41.95
56713;BME280;42589;45.536;9.032;2023-03-14T10:16:09;98423.88;;;20.76;42.56
56713;BME280;42589;45.536;9.032;2023-03-14T10:19:14;98386.75;;;21.70;39.90
56713;BME280;42589;45.536;9.032;2023-03-14T10:22:17;98361.66;;;21.42;41.04
56713;BME280;42589;45.536;9.032;2023-03-14T10:25:28;98386.63;;;21.60;41.41
56713;BME280;42589;45.536;9.032;2023-03-14T10:28:31;98380.22;;;21.06;42.31
56713;BME280;42589;45.536;9.032;2023-03-14T10:38:16;98365.63;;;20.36;41.94
56713;BME280;42589;45.536;9.032;2023-03-14T10:41:26;98362.19;;;21.82;41.18
56713;BME280;42589;45.536;9.032;2023-03-14T10:44:28;98370.75;;;22.06;41.02
56713;BME280;42589;45.536;9.032;2023-03-14T10:47:32;98373.53;;;21.78;41.61
56713;BME280;42589;45.536;9.032;2023-03-14T10:50:33;98359.59;;;21.60;41.56
56713;BME280;42589;45.536;9.032;2023-03-14T10:53:45;98361.78;;;21.63;42.00
56713;BME280;42589;45.536;9.032;2023-03-14T10:56:59;98386.47;;;21.12;40.73
56713;BME280;42589;45.536;9.032;2023-03-14T11:00:00;98380.19;;;20.57;41.59
56713;BME280;42589;45.536;9.032;2023-03-14T11:03:11;98385.50;;;21.23;42.68
56713;BME280;42589;45.536;9.032;2023-03-14T11:06:14;98395.00;;;21.31;42.78
56713;BME280;42589;45.536;9.032;2023-03-14T11:09:56;98396.84;;;21.85;40.72
56713;BME280;42589;45.536;9.032;2023-03-14T11:13:31;98390.94;;;22.30;39.56
56713;BME280;42589;45.536;9.032;2023-03-14T11:16:52;98397.75;;;19.99;43.22
56713;BME280;42589;45.536;9.032;2023-03-14T11:20:35;98390.34;;;22.18;39.50
56713;BME280;42589;45.536;9.032;2023-03-14T11:27:25;98374.34;;;22.16;41.19
56713;BME280;42589;45.536;9.032;2023-03-14T11:30:37;98375.13;;;22.12;39.46
56713;BME280;42589;45.536;9.032;2023-03-14T11:37:05;98358.72;;;21.86;38.29
56713;BME280;42589;45.536;9.032;2023-03-14T11:40:23;98368.38;;;21.40;39.54
56713;BME280;42589;45.536;9.032;2023-03-14T11:43:35;98331.88;;;21.74;38.27
56713;BME280;42589;45.536;9.032;2023-03-14T11:46:44;98331.59;;;22.18;38.25
56713;BME280;42589;45.536;9.032;2023-03-14T11:50:07;98329.31;;;22.00;38.61
56713;BME280;42589;45.536;9.032;2023-03-14T11:56:46;98360.78;;;22.11;38.92
56713;BME280;42589;45.536;9.032;2023-03-14T12:03:58;98350.09;;;22.37;39.19
56713;BME280;42589;45.536;9.032;2023-03-14T12:11:02;98299.09;;;23.27;36.14
56713;BME280;42589;45.536;9.032;2023-03-14T12:17:37;98300.31;;;22.48;38.56
56713;BME280;42589;45.536;9.032;2023-03-14T12:20:39;98309.69;;;23.29;36.88
56713;BME280;42589;45.536;9.032;2023-03-14T12:23:54;98302.34;;;23.09;37.25
56713;BME280;42589;45.536;9.032;2023-03-14T12:26:59;98303.41;;;23.64;36.63
56713;BME280;42589;45.536;9.032;2023-03-14T12:30:01;98268.72;;;23.71;37.36
56713;BME280;42589;45.536;9.032;2023-03-14T12:36:29;98281.47;;;23.60;35.84
56713;BME280;42589;45.536;9.032;2023-03-14T12:43:28;98272.06;;;24.23;35.23
56713;BME280;42589;45.536;9.032;2023-03-14T12:46:29;98266.47;;;24.59;34.17
56713;BME280;42589;45.536;9.032;2023-03-14T12:49:31;98244.00;;;23.62;35.90
56713;BME280;42589;45.536;9.032;2023-03-14T12:55:55;98232.25;;;24.03;35.08
56713;BME280;42589;45.536;9.032;2023-03-14T13:05:21;98240.00;;;23.45;35.10
56713;BME280;42589;45.536;9.032;2023-03-14T13:08:41;98241.75;;;24.00;35.58
56713;BME280;42589;45.536;9.032;2023-03-14T13:11:43;98239.25;;;24.14;34.18
56713;BME280;42589;45.536;9.032;2023-03-14T13:14:46;98229.13;;;24.30;34.57
56713;BME280;42589;45.536;9.032;2023-03-14T13:17:48;98243.16;;;24.92;33.28
56713;BME280;42589;45.536;9.032;2023-03-14T13:20:55;98227.09;;;24.56;34.91
56713;BME280;42589;45.536;9.032;2023-03-14T13:24:03;98237.06;;;24.21;36.39
56713;BME280;42589;45.536;9.032;2023-03-14T13:27:04;98222.28;;;24.87;35.82
56713;BME280;42589;45.536;9.032;2023-03-14T13:30:27;98228.31;;;25.08;34.54
56713;BME280;42589;45.536;9.032;2023-03-14T13:33:28;98237.13;;;25.34;33.50
56713;BME280;42589;45.536;9.032;2023-03-14T13:36:28;98201.69;;;25.10;33.75
56713;BME280;42589;45.536;9.032;2023-03-14T13:39:29;98186.88;;;24.92;34.11
56713;BME280;42589;45.536;9.032;2023-03-14T13:42:29;98202.06;;;24.15;34.87
56713;BME280;42589;45.536;9.032;2023-03-14T13:45:31;98175.47;;;24.61;35.09
56713;BME280;42589;45.536;9.032;2023-03-14T13:48:34;98180.59;;;24.18;35.19
56713;BME280;42589;45.536;9.032;2023-03-14T13:51:39;98168.22;;;24.02;33.21
56713;BME280;42589;45.536;9.032;2023-03-14T13:54:41;98190.38;;;23.39;34.38
56713;BME280;42589;45.536;9.032;2023-03-14T13:57:50;98184.41;;;23.37;35.59
56713;BME280;42589;45.536;9.032;2023-03-14T14:01:06;98199.38;;;24.59;35.16
56713;BME280;42589;45.536;9.032;2023-03-14T14:04:19;98204.66;;;24.79;33.54
56713;BME280;42589;45.536;9.032;2023-03-14T14:07:22;98193.22;;;24.38;34.74
56713;BME280;42589;45.536;9.032;2023-03-14T14:10:23;98194.53;;;24.90;33.33
56713;BME280;42589;45.536;9.032;2023-03-14T14:13:28;98183.97;;;25.18;32.98
56713;BME280;42589;45.536;9.032;2023-03-14T14:16:32;98173.75;;;24.70;33.67
56713;BME280;42589;45.536;9.032;2023-03-14T14:19:34;98188.19;;;24.16;36.29
56713;BME280;42589;45.536;9.032;2023-03-14T14:22:36;98183.44;;;23.98;35.63
56713;BME280;42589;45.536;9.032;2023-03-14T14:25:37;98195.66;;;24.84;34.35
56713;BME280;42589;45.536;9.032;2023-03-14T14:28:39;98189.41;;;24.49;34.00
56713;BME280;42589;45.536;9.032;2023-03-14T14:31:43;98197.50;;;24.54;33.87
56713;BME280;42589;45.536;9.032;2023-03-14T14:34:46;98188.75;;;24.63;33.60
56713;BME280;42589;45.536;9.032;2023-03-14T14:37:59;98200.44;;;24.97;33.54
56713;BME280;42589;45.536;9.032;2023-03-14T14:41:01;98214.09;;;23.93;35.06
56713;BME280;42589;45.536;9.032;2023-03-14T14:44:04;98210.28;;;24.54;34.23
56713;BME280;42589;45.536;9.032;2023-03-14T14:47:05;98214.44;;;24.81;33.76
56713;BME280;42589;45.536;9.032;2023-03-14T14:50:26;98196.75;;;24.39;34.30
56713;BME280;42589;45.536;9.032;2023-03-14T14:53:39;98197.19;;;24.12;35.75
56713;BME280;42589;45.536;9.032;2023-03-14T14:56:47;98186.47;;;24.36;34.74
56713;BME280;42589;45.536;9.032;2023-03-14T14:59:49;98211.28;;;23.23;35.86
56713;BME280;42589;45.536;9.032;2023-03-14T15:02:52;98200.44;;;22.67;37.11
56713;BME280;42589;45.536;9.032;2023-03-14T15:05:55;98200.72;;;22.76;36.73
56713;BME280;42589;45.536;9.032;2023-03-14T15:08:55;98203.25;;;23.93;35.15
56713;BME280;42589;45.536;9.032;2023-03-14T15:11:56;98189.03;;;23.36;35.85
56713;BME280;42589;45.536;9.032;2023-03-14T15:14:57;98198.84;;;24.07;35.55
56713;BME280;42589;45.536;9.032;2023-03-14T15:17:57;98182.47;;;23.63;35.75
56713;BME280;42589;45.536;9.032;2023-03-14T15:20:59;98192.25;;;24.19;35.15
56713;BME280;42589;45.536;9.032;2023-03-14T15:24:01;98199.69;;;24.03;35.90
56713;BME280;42589;45.536;9.032;2023-03-14T15:27:03;98196.69;;;24.04;35.35
56713;BME280;42589;45.536;9.032;2023-03-14T15:30:05;98185.69;;;23.75;35.58
56713;BME280;42589;45.536;9.032;2023-03-14T15:33:08;98202.69;;;24.01;35.55
56713;BME280;42589;45.536;9.032;2023-03-14T15:36:24;98186.53;;;23.71;36.20
56713;BME280;42589;45.536;9.032;2023-03-14T15:39:25;98182.66;;;23.87;35.07
56713;BME280;42589;45.536;9.032;2023-03-14T15:42:26;98189.69;;;23.88;34.86
56713;BME280;42589;45.536;9.032;2023-03-14T15:45:27;98175.25;;;23.17;35.60
56713;BME280;42589;45.536;9.032;2023-03-14T15:48:28;98174.97;;;23.34;35.48
56713;BME280;42589;45.536;9.032;2023-03-14T15:51:29;98182.47;;;23.58;35.82
56713;BME280;42589;45.536;9.032;2023-03-14T15:54:30;98191.78;;;23.31;36.81
56713;BME280;42589;45.536;9.032;2023-03-14T15:57:32;98180.59;;;23.48;36.42
56713;BME280;42589;45.536;9.032;2023-03-14T16:00:32;98185.72;;;23.60;36.32
56713;BME280;42589;45.536;9.032;2023-03-14T16:03:35;98187.72;;;23.29;37.14
56713;BME280;42589;45.536;9.032;2023-03-14T16:06:36;98200.41;;;23.49;37.04
56713;BME280;42589;45.536;9.032;2023-03-14T16:09:37;98192.47;;;23.68;36.48
56713;BME280;42589;45.536;9.032;2023-03-14T16:12:38;98193.28;;;23.68;36.76
56713;BME280;42589;45.536;9.032;2023-03-14T16:15:39;98179.47;;;23.64;36.30
56713;BME280;42589;45.536;9.032;2023-03-14T16:18:40;98195.53;;;23.46;36.78
56713;BME280;42589;45.536;9.032;2023-03-14T16:21:41;98192.34;;;21.78;39.06
56713;BME280;42589;45.536;9.032;2023-03-14T16:24:43;98188.91;;;21.36;40.02
56713;BME280;42589;45.536;9.032;2023-03-14T16:27:44;98175.75;;;21.60;39.53
56713;BME280;42589;45.536;9.032;2023-03-14T16:30:45;98198.31;;;21.33;40.32
56713;BME280;42589;45.536;9.032;2023-03-14T16:33:46;98174.41;;;21.57;39.75
56713;BME280;42589;45.536;9.032;2023-03-14T16:36:50;98186.75;;;21.38;40.82
56713;BME280;42589;45.536;9.032;2023-03-14T16:39:51;98194.16;;;22.31;39.07
56713;BME280;42589;45.536;9.032;2023-03-14T16:42:52;98194.16;;;22.31;39.02
56713;BME280;42589;45.536;9.032;2023-03-14T16:45:53;98184.13;;;22.26;39.05
56713;BME280;42589;45.536;9.032;2023-03-14T16:48:54;98197.72;;;22.57;38.68
56713;BME280;42589;45.536;9.032;2023-03-14T16:51:56;98176.66;;;21.81;40.31
56713;BME280;42589;45.536;9.032;2023-03-14T16:54:57;98179.03;;;22.30;39.32
56713;BME280;42589;45.536;9.032;2023-03-14T16:57:58;98195.94;;;21.99;39.69
56713;BME280;42589;45.536;9.032;2023-03-14T17:01:03;98189.69;;;21.89;40.37
56713;BME280;42589;45.536;9.032;2023-03-14T17:04:09;98185.81;;;20.84;42.02
56713;BME280;42589;45.536;9.032;2023-03-14T17:07:10;98198.09;;;21.97;40.32